sensor_id;sensor_type;location;lat;lon;timestamp;P1;durP1;ratioP1;P2;durP2;ratioP2
76115;SDS011;64847;45.778;12.802;2023-04-24T00:00:14;7.87;;;7.17;;
76115;SDS011;64847;45.778;12.802;2023-04-24T00:02:40;6.90;;;6.20;;
76115;SDS011;64847;45.778;12.802;2023-04-24T00:05:10;7.50;;;6.80;;
76115;SDS011;64847;45.778;12.802;2023-04-24T00:07:35;8.77;;;6.30;;
76115;SDS011;64847;45.778;12.802;2023-04-24T00:10:00;6.40;;;5.90;;
76115;SDS011;64847;45.778;12.802;2023-04-24T00:12:26;6.60;;;6.10;;
76115;SDS011;64847;45.778;12.802;2023-04-24T00:14:52;7.27;;;6.67;;
76115;SDS011;64847;45.778;12.802;2023-04-24T00:17:17;7.17;;;6.67;;
76115;SDS011;64847;45.778;12.802;2023-04-24T00:19:46;7.37;;;6.67;;
76115;SDS011;64847;45.778;12.802;2023-04-24T00:22:12;7.43;;;6.83;;
76115;SDS011;64847;45.778;12.802;2023-04-24T00:24:38;7.47;;;6.67;;
76115;SDS011;64847;45.778;12.802;2023-04-24T00:27:04;7.37;;;6.63;;
76115;SDS011;64847;45.778;12.802;2023-04-24T00:29:29;6.60;;;6.10;;
76115;SDS011;64847;45.778;12.802;2023-04-24T00:31:55;6.50;;;5.93;;
76115;SDS011;64847;45.778;12.802;2023-04-24T00:34:20;6.50;;;5.93;;
76115;SDS011;64847;45.778;12.802;2023-04-24T00:36:46;6.67;;;6.03;;
76115;SDS011;64847;45.778;12.802;2023-04-24T00:39:11;6.77;;;6.20;;
76115;SDS011;64847;45.778;12.802;2023-04-24T00:41:37;6.40;;;5.90;;
76115;SDS011;64847;45.778;12.802;2023-04-24T00:44:02;8.20;;;5.77;;
76115;SDS011;64847;45.778;12.802;2023-04-24T00:46:27;6.40;;;5.90;;
76115;SDS011;64847;45.778;12.802;2023-04-24T00:48:53;6.70;;;6.20;;
76115;SDS011;64847;45.778;12.802;2023-04-24T00:51:19;6.60;;;6.00;;
76115;SDS011;64847;45.778;12.802;2023-04-24T00:53:45;6.33;;;5.83;;
76115;SDS011;64847;45.778;12.802;2023-04-24T00:56:10;6.13;;;5.63;;
76115;SDS011;64847;45.778;12.802;2023-04-24T00:58:36;6.73;;;6.17;;
76115;SDS011;64847;45.778;12.802;2023-04-24T01:01:01;6.20;;;5.73;;
76115;SDS011;64847;45.778;12.802;2023-04-24T01:03:29;6.93;;;6.27;;
76115;SDS011;64847;45.778;12.802;2023-04-24T01:05:57;6.80;;;6.20;;
76115;SDS011;64847;45.778;12.802;2023-04-24T01:08:23;6.70;;;5.77;;
76115;SDS011;64847;45.778;12.802;2023-04-24T01:10:50;6.47;;;5.87;;
76115;SDS011;64847;45.778;12.802;2023-04-24T01:13:16;6.77;;;6.20;;
76115;SDS011;64847;45.778;12.802;2023-04-24T01:15:42;6.97;;;6.33;;
76115;SDS011;64847;45.778;12.802;2023-04-24T01:18:08;6.37;;;5.77;;
76115;SDS011;64847;45.778;12.802;2023-04-24T01:20:33;6.20;;;5.70;;
76115;SDS011;64847;45.778;12.802;2023-04-24T01:22:59;6.63;;;6.03;;
76115;SDS011;64847;45.778;12.802;2023-04-24T01:25:25;6.43;;;5.93;;
76115;SDS011;64847;45.778;12.802;2023-04-24T01:27:51;6.47;;;5.87;;
76115;SDS011;64847;45.778;12.802;2023-04-24T01:30:17;6.17;;;5.77;;
76115;SDS011;64847;45.778;12.802;2023-04-24T01:32:43;6.10;;;5.50;;
76115;SDS011;64847;45.778;12.802;2023-04-24T01:35:10;6.90;;;6.20;;
76115;SDS011;64847;45.778;12.802;2023-04-24T01:37:35;6.40;;;5.83;;
76115;SDS011;64847;45.778;12.802;2023-04-24T01:40:02;6.47;;;5.87;;
76115;SDS011;64847;45.778;12.802;2023-04-24T01:42:29;6.87;;;6.27;;
76115;SDS011;64847;45.778;12.802;2023-04-24T01:44:55;7.10;;;5.70;;
76115;SDS011;64847;45.778;12.802;2023-04-24T01:47:21;7.77;;;5.83;;
76115;SDS011;64847;45.778;12.802;2023-04-24T01:49:47;5.80;;;5.30;;
76115;SDS011;64847;45.778;12.802;2023-04-24T01:52:13;6.03;;;5.53;;
76115;SDS011;64847;45.778;12.802;2023-04-24T01:54:38;5.30;;;4.90;;
76115;SDS011;64847;45.778;12.802;2023-04-24T01:57:04;8.07;;;5.93;;
76115;SDS011;64847;45.778;12.802;2023-04-24T01:59:29;6.90;;;5.80;;
76115;SDS011;64847;45.778;12.802;2023-04-24T02:01:55;6.10;;;5.60;;
76115;SDS011;64847;45.778;12.802;2023-04-24T02:04:20;6.23;;;5.73;;
76115;SDS011;64847;45.778;12.802;2023-04-24T02:06:46;5.87;;;5.20;;
76115;SDS011;64847;45.778;12.802;2023-04-24T02:09:11;5.17;;;4.77;;
76115;SDS011;64847;45.778;12.802;2023-04-24T02:11:36;5.43;;;5.03;;
76115;SDS011;64847;45.778;12.802;2023-04-24T02:14:02;6.10;;;5.57;;
76115;SDS011;64847;45.778;12.802;2023-04-24T02:16:28;5.40;;;5.00;;
76115;SDS011;64847;45.778;12.802;2023-04-24T02:18:57;5.70;;;5.20;;
76115;SDS011;64847;45.778;12.802;2023-04-24T02:21:22;5.70;;;5.33;;
76115;SDS011;64847;45.778;12.802;2023-04-24T02:23:47;5.40;;;5.00;;
76115;SDS011;64847;45.778;12.802;2023-04-24T02:26:13;5.67;;;5.17;;
76115;SDS011;64847;45.778;12.802;2023-04-24T02:28:38;6.10;;;5.60;;
76115;SDS011;64847;45.778;12.802;2023-04-24T02:31:04;5.43;;;4.93;;
76115;SDS011;64847;45.778;12.802;2023-04-24T02:33:30;5.60;;;5.20;;
76115;SDS011;64847;45.778;12.802;2023-04-24T02:35:55;6.00;;;5.40;;
76115;SDS011;64847;45.778;12.802;2023-04-24T02:38:21;5.47;;;5.03;;
76115;SDS011;64847;45.778;12.802;2023-04-24T02:40:46;5.30;;;4.93;;
76115;SDS011;64847;45.778;12.802;2023-04-24T02:43:11;5.50;;;5.07;;
76115;SDS011;64847;45.778;12.802;2023-04-24T02:45:37;5.67;;;5.27;;
76115;SDS011;64847;45.778;12.802;2023-04-24T02:48:03;5.60;;;5.10;;
76115;SDS011;64847;45.778;12.802;2023-04-24T02:50:28;5.60;;;5.10;;
76115;SDS011;64847;45.778;12.802;2023-04-24T02:52:54;5.97;;;5.50;;
76115;SDS011;64847;45.778;12.802;2023-04-24T02:55:20;5.57;;;5.07;;
76115;SDS011;64847;45.778;12.802;2023-04-24T02:57:46;5.93;;;5.43;;
76115;SDS011;64847;45.778;12.802;2023-04-24T03:00:11;5.47;;;4.97;;
76115;SDS011;64847;45.778;12.802;2023-04-24T03:02:38;5.37;;;4.97;;
76115;SDS011;64847;45.778;12.802;2023-04-24T03:05:03;5.20;;;4.80;;
76115;SDS011;64847;45.778;12.802;2023-04-24T03:07:29;5.87;;;5.37;;
76115;SDS011;64847;45.778;12.802;2023-04-24T03:09:55;5.60;;;5.10;;
76115;SDS011;64847;45.778;12.802;2023-04-24T03:12:22;5.17;;;4.70;;
76115;SDS011;64847;45.778;12.802;2023-04-24T03:14:48;5.00;;;4.50;;
76115;SDS011;64847;45.778;12.802;2023-04-24T03:17:14;6.77;;;5.17;;
76115;SDS011;64847;45.778;12.802;2023-04-24T03:19:39;6.03;;;5.53;;
76115;SDS011;64847;45.778;12.802;2023-04-24T03:22:05;6.23;;;5.73;;
76115;SDS011;64847;45.778;12.802;2023-04-24T03:24:31;5.90;;;5.40;;
76115;SDS011;64847;45.778;12.802;2023-04-24T03:26:56;6.27;;;5.80;;
76115;SDS011;64847;45.778;12.802;2023-04-24T03:29:22;5.97;;;5.53;;
76115;SDS011;64847;45.778;12.802;2023-04-24T03:31:47;5.73;;;5.23;;
76115;SDS011;64847;45.778;12.802;2023-04-24T03:34:13;5.50;;;5.10;;
76115;SDS011;64847;45.778;12.802;2023-04-24T03:36:38;5.30;;;4.90;;
76115;SDS011;64847;45.778;12.802;2023-04-24T03:39:04;5.37;;;4.97;;
76115;SDS011;64847;45.778;12.802;2023-04-24T03:41:29;5.80;;;5.40;;
76115;SDS011;64847;45.778;12.802;2023-04-24T03:43:55;5.27;;;4.87;;
76115;SDS011;64847;45.778;12.802;2023-04-24T03:46:21;5.70;;;5.20;;
76115;SDS011;64847;45.778;12.802;2023-04-24T03:48:46;5.83;;;5.43;;
76115;SDS011;64847;45.778;12.802;2023-04-24T03:51:12;5.47;;;5.07;;
76115;SDS011;64847;45.778;12.802;2023-04-24T03:53:37;4.87;;;4.57;;
76115;SDS011;64847;45.778;12.802;2023-04-24T03:56:02;5.50;;;5.10;;
76115;SDS011;64847;45.778;12.802;2023-04-24T03:58:28;5.10;;;4.63;;
76115;SDS011;64847;45.778;12.802;2023-04-24T04:00:53;5.50;;;5.00;;
76115;SDS011;64847;45.778;12.802;2023-04-24T04:03:19;5.17;;;4.77;;
76115;SDS011;64847;45.778;12.802;2023-04-24T04:05:44;5.17;;;4.70;;
76115;SDS011;64847;45.778;12.802;2023-04-24T04:08:10;5.07;;;4.67;;
76115;SDS011;64847;45.778;12.802;2023-04-24T04:10:35;5.50;;;5.00;;
76115;SDS011;64847;45.778;12.802;2023-04-24T04:13:01;7.30;;;5.03;;
76115;SDS011;64847;45.778;12.802;2023-04-24T04:15:26;6.77;;;5.10;;
76115;SDS011;64847;45.778;12.802;2023-04-24T04:17:51;5.17;;;4.80;;
76115;SDS011;64847;45.778;12.802;2023-04-24T04:20:17;5.83;;;5.33;;
76115;SDS011;64847;45.778;12.802;2023-04-24T04:22:42;5.40;;;5.00;;
76115;SDS011;64847;45.778;12.802;2023-04-24T04:25:08;5.27;;;4.80;;
76115;SDS011;64847;45.778;12.802;2023-04-24T04:27:33;5.27;;;4.77;;
76115;SDS011;64847;45.778;12.802;2023-04-24T04:29:59;5.10;;;4.70;;
76115;SDS011;64847;45.778;12.802;2023-04-24T04:32:29;4.93;;;4.47;;
76115;SDS011;64847;45.778;12.802;2023-04-24T04:35:01;4.90;;;4.60;;
76115;SDS011;64847;45.778;12.802;2023-04-24T04:37:30;6.37;;;5.33;;
76115;SDS011;64847;45.778;12.802;2023-04-24T04:39:56;6.10;;;5.20;;
76115;SDS011;64847;45.778;12.802;2023-04-24T04:42:23;7.07;;;5.00;;
76115;SDS011;64847;45.778;12.802;2023-04-24T04:44:49;5.40;;;4.90;;
76115;SDS011;64847;45.778;12.802;2023-04-24T04:47:15;6.00;;;5.47;;
76115;SDS011;64847;45.778;12.802;2023-04-24T04:49:41;5.33;;;4.83;;
76115;SDS011;64847;45.778;12.802;2023-04-24T04:52:08;5.30;;;4.80;;
76115;SDS011;64847;45.778;12.802;2023-04-24T04:54:33;5.27;;;4.77;;
76115;SDS011;64847;45.778;12.802;2023-04-24T04:56:59;5.67;;;5.10;;
76115;SDS011;64847;45.778;12.802;2023-04-24T04:59:25;5.90;;;5.30;;
76115;SDS011;64847;45.778;12.802;2023-04-24T05:01:51;5.70;;;5.17;;
76115;SDS011;64847;45.778;12.802;2023-04-24T05:04:16;5.90;;;5.40;;
76115;SDS011;64847;45.778;12.802;2023-04-24T05:06:41;6.33;;;5.23;;
76115;SDS011;64847;45.778;12.802;2023-04-24T05:09:07;5.50;;;5.10;;
76115;SDS011;64847;45.778;12.802;2023-04-24T05:11:32;5.87;;;5.37;;
76115;SDS011;64847;45.778;12.802;2023-04-24T05:13:58;5.90;;;5.40;;
76115;SDS011;64847;45.778;12.802;2023-04-24T05:16:23;6.23;;;5.60;;
76115;SDS011;64847;45.778;12.802;2023-04-24T05:18:48;6.43;;;5.47;;
76115;SDS011;64847;45.778;12.802;2023-04-24T05:21:14;5.70;;;5.10;;
76115;SDS011;64847;45.778;12.802;2023-04-24T05:23:39;5.70;;;5.20;;
76115;SDS011;64847;45.778;12.802;2023-04-24T05:26:05;4.93;;;4.53;;
76115;SDS011;64847;45.778;12.802;2023-04-24T05:28:30;5.63;;;4.87;;
76115;SDS011;64847;45.778;12.802;2023-04-24T05:30:56;4.90;;;4.47;;
76115;SDS011;64847;45.778;12.802;2023-04-24T05:33:21;4.90;;;4.60;;
76115;SDS011;64847;45.778;12.802;2023-04-24T05:35:47;4.93;;;4.47;;
76115;SDS011;64847;45.778;12.802;2023-04-24T05:38:13;5.17;;;4.70;;
76115;SDS011;64847;45.778;12.802;2023-04-24T05:40:38;5.00;;;4.50;;
76115;SDS011;64847;45.778;12.802;2023-04-24T05:43:04;5.40;;;4.83;;
76115;SDS011;64847;45.778;12.802;2023-04-24T05:45:30;5.30;;;4.60;;
76115;SDS011;64847;45.778;12.802;2023-04-24T05:47:55;4.90;;;4.50;;
76115;SDS011;64847;45.778;12.802;2023-04-24T05:50:21;5.43;;;4.17;;
76115;SDS011;64847;45.778;12.802;2023-04-24T05:52:46;4.37;;;3.97;;
76115;SDS011;64847;45.778;12.802;2023-04-24T05:55:11;5.70;;;5.00;;
76115;SDS011;64847;45.778;12.802;2023-04-24T05:57:38;4.53;;;4.13;;
76115;SDS011;64847;45.778;12.802;2023-04-24T06:00:03;4.77;;;4.10;;
76115;SDS011;64847;45.778;12.802;2023-04-24T06:02:33;4.03;;;3.73;;
76115;SDS011;64847;45.778;12.802;2023-04-24T06:04:58;5.13;;;4.07;;
76115;SDS011;64847;45.778;12.802;2023-04-24T06:07:25;4.23;;;3.87;;
76115;SDS011;64847;45.778;12.802;2023-04-24T06:09:53;4.70;;;4.30;;
76115;SDS011;64847;45.778;12.802;2023-04-24T06:12:18;4.53;;;3.93;;
76115;SDS011;64847;45.778;12.802;2023-04-24T06:14:44;4.73;;;4.23;;
76115;SDS011;64847;45.778;12.802;2023-04-24T06:17:09;3.93;;;3.57;;
76115;SDS011;64847;45.778;12.802;2023-04-24T06:19:35;6.33;;;3.60;;
76115;SDS011;64847;45.778;12.802;2023-04-24T06:22:00;4.50;;;4.10;;
76115;SDS011;64847;45.778;12.802;2023-04-24T06:24:29;4.80;;;4.00;;
76115;SDS011;64847;45.778;12.802;2023-04-24T06:26:54;5.33;;;4.13;;
76115;SDS011;64847;45.778;12.802;2023-04-24T06:29:20;4.40;;;4.10;;
76115;SDS011;64847;45.778;12.802;2023-04-24T06:31:45;4.60;;;4.20;;
76115;SDS011;64847;45.778;12.802;2023-04-24T06:34:10;4.90;;;4.20;;
76115;SDS011;64847;45.778;12.802;2023-04-24T06:36:36;4.10;;;3.70;;
76115;SDS011;64847;45.778;12.802;2023-04-24T06:39:01;4.50;;;4.17;;
76115;SDS011;64847;45.778;12.802;2023-04-24T06:41:27;4.17;;;3.87;;
76115;SDS011;64847;45.778;12.802;2023-04-24T06:43:53;4.10;;;3.73;;
76115;SDS011;64847;45.778;12.802;2023-04-24T06:46:19;4.00;;;3.63;;
76115;SDS011;64847;45.778;12.802;2023-04-24T06:48:47;4.20;;;3.80;;
76115;SDS011;64847;45.778;12.802;2023-04-24T06:51:12;4.13;;;3.83;;
76115;SDS011;64847;45.778;12.802;2023-04-24T06:53:37;4.60;;;4.17;;
76115;SDS011;64847;45.778;12.802;2023-04-24T06:56:03;4.20;;;3.57;;
76115;SDS011;64847;45.778;12.802;2023-04-24T06:58:29;4.27;;;3.70;;
76115;SDS011;64847;45.778;12.802;2023-04-24T07:00:55;4.50;;;4.00;;
76115;SDS011;64847;45.778;12.802;2023-04-24T07:03:21;4.73;;;4.07;;
76115;SDS011;64847;45.778;12.802;2023-04-24T07:05:46;4.03;;;3.73;;
76115;SDS011;64847;45.778;12.802;2023-04-24T07:08:13;5.07;;;4.10;;
76115;SDS011;64847;45.778;12.802;2023-04-24T07:10:38;4.43;;;3.87;;
76115;SDS011;64847;45.778;12.802;2023-04-24T07:13:04;5.30;;;3.90;;
76115;SDS011;64847;45.778;12.802;2023-04-24T07:15:30;4.70;;;4.00;;
76115;SDS011;64847;45.778;12.802;2023-04-24T07:17:57;4.97;;;4.50;;
76115;SDS011;64847;45.778;12.802;2023-04-24T07:20:22;4.50;;;4.10;;
76115;SDS011;64847;45.778;12.802;2023-04-24T07:22:48;5.83;;;4.10;;
76115;SDS011;64847;45.778;12.802;2023-04-24T07:25:14;4.43;;;4.03;;
76115;SDS011;64847;45.778;12.802;2023-04-24T07:27:40;5.63;;;4.27;;
76115;SDS011;64847;45.778;12.802;2023-04-24T07:30:06;4.67;;;3.63;;
76115;SDS011;64847;45.778;12.802;2023-04-24T07:32:32;4.33;;;4.03;;
76115;SDS011;64847;45.778;12.802;2023-04-24T07:34:57;6.30;;;3.93;;
76115;SDS011;64847;45.778;12.802;2023-04-24T07:37:22;4.37;;;3.97;;
76115;SDS011;64847;45.778;12.802;2023-04-24T07:39:48;4.60;;;4.10;;
76115;SDS011;64847;45.778;12.802;2023-04-24T07:42:14;4.33;;;3.93;;
76115;SDS011;64847;45.778;12.802;2023-04-24T07:44:39;4.77;;;4.30;;
76115;SDS011;64847;45.778;12.802;2023-04-24T07:47:05;5.27;;;4.50;;
76115;SDS011;64847;45.778;12.802;2023-04-24T07:49:30;6.60;;;4.60;;
76115;SDS011;64847;45.778;12.802;2023-04-24T07:51:56;4.47;;;3.93;;
76115;SDS011;64847;45.778;12.802;2023-04-24T07:54:21;6.07;;;4.03;;
76115;SDS011;64847;45.778;12.802;2023-04-24T07:56:48;4.70;;;4.00;;
76115;SDS011;64847;45.778;12.802;2023-04-24T07:59:13;6.43;;;3.97;;
76115;SDS011;64847;45.778;12.802;2023-04-24T08:01:38;3.87;;;3.47;;
76115;SDS011;64847;45.778;12.802;2023-04-24T08:04:04;4.93;;;3.40;;
76115;SDS011;64847;45.778;12.802;2023-04-24T08:06:29;4.10;;;3.40;;
76115;SDS011;64847;45.778;12.802;2023-04-24T08:08:59;4.17;;;3.73;;
76115;SDS011;64847;45.778;12.802;2023-04-24T08:11:25;4.60;;;3.70;;
76115;SDS011;64847;45.778;12.802;2023-04-24T08:13:50;5.10;;;3.33;;
76115;SDS011;64847;45.778;12.802;2023-04-24T08:16:16;5.07;;;3.60;;
76115;SDS011;64847;45.778;12.802;2023-04-24T08:18:41;4.47;;;3.43;;
76115;SDS011;64847;45.778;12.802;2023-04-24T08:21:07;3.53;;;3.23;;
76115;SDS011;64847;45.778;12.802;2023-04-24T08:23:32;5.97;;;3.47;;
76115;SDS011;64847;45.778;12.802;2023-04-24T08:25:57;3.90;;;3.50;;
76115;SDS011;64847;45.778;12.802;2023-04-24T08:28:23;3.60;;;3.30;;
76115;SDS011;64847;45.778;12.802;2023-04-24T08:30:48;4.30;;;3.20;;
76115;SDS011;64847;45.778;12.802;2023-04-24T08:33:19;4.50;;;3.70;;
76115;SDS011;64847;45.778;12.802;2023-04-24T08:35:45;3.83;;;3.47;;
76115;SDS011;64847;45.778;12.802;2023-04-24T08:38:10;4.13;;;3.73;;
76115;SDS011;64847;45.778;12.802;2023-04-24T08:40:36;4.47;;;3.33;;
76115;SDS011;64847;45.778;12.802;2023-04-24T08:43:02;5.63;;;3.60;;
76115;SDS011;64847;45.778;12.802;2023-04-24T08:45:28;3.97;;;3.60;;
76115;SDS011;64847;45.778;12.802;2023-04-24T08:47:54;3.50;;;3.20;;
76115;SDS011;64847;45.778;12.802;2023-04-24T08:50:20;3.97;;;3.00;;
76115;SDS011;64847;45.778;12.802;2023-04-24T08:52:47;3.33;;;3.03;;
76115;SDS011;64847;45.778;12.802;2023-04-24T08:55:15;3.33;;;3.00;;
76115;SDS011;64847;45.778;12.802;2023-04-24T08:57:43;3.53;;;2.70;;
76115;SDS011;64847;45.778;12.802;2023-04-24T09:00:11;5.40;;;3.20;;
76115;SDS011;64847;45.778;12.802;2023-04-24T09:02:39;2.97;;;2.77;;
76115;SDS011;64847;45.778;12.802;2023-04-24T09:05:07;2.83;;;2.37;;
76115;SDS011;64847;45.778;12.802;2023-04-24T09:07:33;2.87;;;2.67;;
76115;SDS011;64847;45.778;12.802;2023-04-24T09:10:01;2.23;;;2.13;;
76115;SDS011;64847;45.778;12.802;2023-04-24T09:12:27;4.30;;;2.67;;
76115;SDS011;64847;45.778;12.802;2023-04-24T09:14:52;3.10;;;2.77;;
76115;SDS011;64847;45.778;12.802;2023-04-24T09:17:18;3.20;;;2.33;;
76115;SDS011;64847;45.778;12.802;2023-04-24T09:19:44;2.90;;;2.60;;
76115;SDS011;64847;45.778;12.802;2023-04-24T09:22:10;2.87;;;2.47;;
76115;SDS011;64847;45.778;12.802;2023-04-24T09:24:36;2.70;;;2.23;;
76115;SDS011;64847;45.778;12.802;2023-04-24T09:27:01;2.10;;;1.93;;
76115;SDS011;64847;45.778;12.802;2023-04-24T09:29:27;2.83;;;2.23;;
76115;SDS011;64847;45.778;12.802;2023-04-24T09:31:53;3.10;;;2.63;;
76115;SDS011;64847;45.778;12.802;2023-04-24T09:34:22;2.80;;;2.50;;
76115;SDS011;64847;45.778;12.802;2023-04-24T09:36:48;3.60;;;2.27;;
76115;SDS011;64847;45.778;12.802;2023-04-24T09:39:14;2.70;;;2.37;;
76115;SDS011;64847;45.778;12.802;2023-04-24T09:41:44;3.07;;;2.40;;
76115;SDS011;64847;45.778;12.802;2023-04-24T09:44:17;2.33;;;2.13;;
76115;SDS011;64847;45.778;12.802;2023-04-24T09:46:48;2.50;;;2.30;;
76115;SDS011;64847;45.778;12.802;2023-04-24T09:49:15;2.77;;;2.30;;
76115;SDS011;64847;45.778;12.802;2023-04-24T09:51:41;2.60;;;2.40;;
76115;SDS011;64847;45.778;12.802;2023-04-24T09:54:13;2.47;;;2.27;;
76115;SDS011;64847;45.778;12.802;2023-04-24T09:56:45;3.03;;;2.60;;
76115;SDS011;64847;45.778;12.802;2023-04-24T09:59:16;3.53;;;2.53;;
76115;SDS011;64847;45.778;12.802;2023-04-24T10:01:43;2.30;;;2.10;;
76115;SDS011;64847;45.778;12.802;2023-04-24T10:06:42;2.23;;;2.07;;
76115;SDS011;64847;45.778;12.802;2023-04-24T10:09:08;2.40;;;2.20;;
76115;SDS011;64847;45.778;12.802;2023-04-24T10:11:36;3.43;;;2.53;;
76115;SDS011;64847;45.778;12.802;2023-04-24T10:14:02;2.63;;;2.40;;
76115;SDS011;64847;45.778;12.802;2023-04-24T10:16:27;2.90;;;2.33;;
76115;SDS011;64847;45.778;12.802;2023-04-24T10:18:53;1.90;;;1.80;;
76115;SDS011;64847;45.778;12.802;2023-04-24T10:21:19;1.37;;;1.27;;
76115;SDS011;64847;45.778;12.802;2023-04-24T10:23:45;1.10;;;1.10;;
76115;SDS011;64847;45.778;12.802;2023-04-24T10:26:14;1.30;;;1.13;;
76115;SDS011;64847;45.778;12.802;2023-04-24T10:28:46;0.90;;;0.90;;
76115;SDS011;64847;45.778;12.802;2023-04-24T10:31:13;1.20;;;0.70;;
76115;SDS011;64847;45.778;12.802;2023-04-24T10:33:42;0.60;;;0.57;;
76115;SDS011;64847;45.778;12.802;2023-04-24T10:36:11;0.70;;;0.70;;
76115;SDS011;64847;45.778;12.802;2023-04-24T10:38:38;0.60;;;0.60;;
76115;SDS011;64847;45.778;12.802;2023-04-24T10:41:09;0.80;;;0.80;;
76115;SDS011;64847;45.778;12.802;2023-04-24T10:43:40;0.77;;;0.77;;
76115;SDS011;64847;45.778;12.802;2023-04-24T10:46:06;0.70;;;0.70;;
76115;SDS011;64847;45.778;12.802;2023-04-24T10:48:32;2.73;;;0.80;;
76115;SDS011;64847;45.778;12.802;2023-04-24T10:50:58;1.33;;;0.80;;
76115;SDS011;64847;45.778;12.802;2023-04-24T10:53:28;1.70;;;1.00;;
76115;SDS011;64847;45.778;12.802;2023-04-24T10:58:24;1.47;;;1.03;;
76115;SDS011;64847;45.778;12.802;2023-04-24T11:00:57;0.80;;;0.80;;
76115;SDS011;64847;45.778;12.802;2023-04-24T11:05:58;1.00;;;1.00;;
76115;SDS011;64847;45.778;12.802;2023-04-24T11:08:31;1.43;;;0.97;;
76115;SDS011;64847;45.778;12.802;2023-04-24T11:10:59;1.20;;;1.10;;
76115;SDS011;64847;45.778;12.802;2023-04-24T11:13:26;1.23;;;1.13;;
76115;SDS011;64847;45.778;12.802;2023-04-24T11:19:05;1.03;;;0.90;;
76115;SDS011;64847;45.778;12.802;2023-04-24T11:24:26;1.43;;;0.87;;
76115;SDS011;64847;45.778;12.802;2023-04-24T11:29:43;0.90;;;0.90;;
76115;SDS011;64847;45.778;12.802;2023-04-24T11:34:47;0.80;;;0.80;;
76115;SDS011;64847;45.778;12.802;2023-04-24T11:37:14;1.47;;;0.70;;
76115;SDS011;64847;45.778;12.802;2023-04-24T11:39:40;0.80;;;0.80;;
76115;SDS011;64847;45.778;12.802;2023-04-24T11:42:06;1.17;;;0.80;;
76115;SDS011;64847;45.778;12.802;2023-04-24T11:44:33;0.90;;;0.90;;
76115;SDS011;64847;45.778;12.802;2023-04-24T11:46:59;0.70;;;0.70;;
76115;SDS011;64847;45.778;12.802;2023-04-24T11:49:25;0.60;;;0.60;;
76115;SDS011;64847;45.778;12.802;2023-04-24T11:51:54;0.80;;;0.80;;
76115;SDS011;64847;45.778;12.802;2023-04-24T11:54:20;0.80;;;0.80;;
76115;SDS011;64847;45.778;12.802;2023-04-24T11:56:46;0.67;;;0.67;;
76115;SDS011;64847;45.778;12.802;2023-04-24T11:59:12;0.60;;;0.60;;
76115;SDS011;64847;45.778;12.802;2023-04-24T12:01:44;0.70;;;0.70;;
76115;SDS011;64847;45.778;12.802;2023-04-24T12:04:10;0.57;;;0.57;;
76115;SDS011;64847;45.778;12.802;2023-04-24T12:06:36;0.80;;;0.80;;
76115;SDS011;64847;45.778;12.802;2023-04-24T12:09:01;0.80;;;0.80;;
76115;SDS011;64847;45.778;12.802;2023-04-24T12:11:27;0.87;;;0.87;;
76115;SDS011;64847;45.778;12.802;2023-04-24T12:13:52;0.90;;;0.90;;
76115;SDS011;64847;45.778;12.802;2023-04-24T12:16:18;0.90;;;0.90;;
76115;SDS011;64847;45.778;12.802;2023-04-24T12:18:44;0.90;;;0.90;;
76115;SDS011;64847;45.778;12.802;2023-04-24T12:23:44;1.13;;;1.03;;
76115;SDS011;64847;45.778;12.802;2023-04-24T12:26:16;0.97;;;0.97;;
76115;SDS011;64847;45.778;12.802;2023-04-24T12:28:46;1.20;;;1.20;;
76115;SDS011;64847;45.778;12.802;2023-04-24T12:31:14;1.00;;;1.00;;
76115;SDS011;64847;45.778;12.802;2023-04-24T12:33:40;0.90;;;0.90;;
76115;SDS011;64847;45.778;12.802;2023-04-24T12:36:05;1.00;;;1.00;;
76115;SDS011;64847;45.778;12.802;2023-04-24T12:38:31;1.00;;;1.00;;
76115;SDS011;64847;45.778;12.802;2023-04-24T12:41:23;0.90;;;0.90;;
76115;SDS011;64847;45.778;12.802;2023-04-24T12:43:52;1.07;;;1.07;;
76115;SDS011;64847;45.778;12.802;2023-04-24T12:46:18;0.80;;;0.80;;
76115;SDS011;64847;45.778;12.802;2023-04-24T12:48:43;0.90;;;0.90;;
76115;SDS011;64847;45.778;12.802;2023-04-24T12:51:08;1.10;;;1.10;;
76115;SDS011;64847;45.778;12.802;2023-04-24T12:53:34;1.47;;;0.70;;
76115;SDS011;64847;45.778;12.802;2023-04-24T12:55:59;0.90;;;0.90;;
76115;SDS011;64847;45.778;12.802;2023-04-24T12:58:25;0.83;;;0.83;;
76115;SDS011;64847;45.778;12.802;2023-04-24T13:00:50;0.70;;;0.70;;
76115;SDS011;64847;45.778;12.802;2023-04-24T13:03:16;0.80;;;0.80;;
76115;SDS011;64847;45.778;12.802;2023-04-24T13:05:42;0.90;;;0.90;;
76115;SDS011;64847;45.778;12.802;2023-04-24T13:08:08;1.50;;;1.00;;
76115;SDS011;64847;45.778;12.802;2023-04-24T13:10:34;0.90;;;0.90;;
76115;SDS011;64847;45.778;12.802;2023-04-24T13:13:00;0.80;;;0.80;;
76115;SDS011;64847;45.778;12.802;2023-04-24T13:15:25;0.83;;;0.83;;
76115;SDS011;64847;45.778;12.802;2023-04-24T13:17:51;0.80;;;0.80;;
76115;SDS011;64847;45.778;12.802;2023-04-24T13:20:16;0.90;;;0.90;;
76115;SDS011;64847;45.778;12.802;2023-04-24T13:22:42;1.03;;;0.97;;
76115;SDS011;64847;45.778;12.802;2023-04-24T13:25:07;0.70;;;0.70;;
76115;SDS011;64847;45.778;12.802;2023-04-24T13:27:33;0.67;;;0.67;;
76115;SDS011;64847;45.778;12.802;2023-04-24T13:29:59;0.80;;;0.80;;
76115;SDS011;64847;45.778;12.802;2023-04-24T13:32:24;0.93;;;0.93;;
76115;SDS011;64847;45.778;12.802;2023-04-24T13:34:50;0.80;;;0.80;;
76115;SDS011;64847;45.778;12.802;2023-04-24T13:37:15;0.87;;;0.87;;
76115;SDS011;64847;45.778;12.802;2023-04-24T13:39:41;0.90;;;0.90;;
76115;SDS011;64847;45.778;12.802;2023-04-24T13:42:06;0.90;;;0.90;;
76115;SDS011;64847;45.778;12.802;2023-04-24T13:44:31;0.70;;;0.70;;
76115;SDS011;64847;45.778;12.802;2023-04-24T13:46:57;0.80;;;0.80;;
76115;SDS011;64847;45.778;12.802;2023-04-24T13:49:23;0.90;;;0.90;;
76115;SDS011;64847;45.778;12.802;2023-04-24T13:51:52;0.90;;;0.90;;
76115;SDS011;64847;45.778;12.802;2023-04-24T13:54:18;0.90;;;0.90;;
76115;SDS011;64847;45.778;12.802;2023-04-24T13:56:43;1.10;;;1.10;;
76115;SDS011;64847;45.778;12.802;2023-04-24T13:59:09;0.80;;;0.80;;
76115;SDS011;64847;45.778;12.802;2023-04-24T14:01:35;1.00;;;1.00;;
76115;SDS011;64847;45.778;12.802;2023-04-24T14:04:00;1.00;;;1.00;;
76115;SDS011;64847;45.778;12.802;2023-04-24T14:06:26;1.10;;;1.10;;
76115;SDS011;64847;45.778;12.802;2023-04-24T14:08:51;1.07;;;1.07;;
76115;SDS011;64847;45.778;12.802;2023-04-24T14:11:17;1.00;;;1.00;;
76115;SDS011;64847;45.778;12.802;2023-04-24T14:13:43;1.50;;;1.20;;
76115;SDS011;64847;45.778;12.802;2023-04-24T14:16:09;1.10;;;1.10;;
76115;SDS011;64847;45.778;12.802;2023-04-24T14:18:35;1.10;;;1.10;;
76115;SDS011;64847;45.778;12.802;2023-04-24T14:21:01;1.03;;;1.03;;
76115;SDS011;64847;45.778;12.802;2023-04-24T14:23:27;1.20;;;1.20;;
76115;SDS011;64847;45.778;12.802;2023-04-24T14:25:52;1.63;;;1.40;;
76115;SDS011;64847;45.778;12.802;2023-04-24T14:28:18;1.40;;;1.30;;
76115;SDS011;64847;45.778;12.802;2023-04-24T14:30:45;1.10;;;1.10;;
76115;SDS011;64847;45.778;12.802;2023-04-24T14:33:11;1.20;;;1.20;;
76115;SDS011;64847;45.778;12.802;2023-04-24T14:35:37;1.20;;;1.20;;
76115;SDS011;64847;45.778;12.802;2023-04-24T14:38:03;1.37;;;1.27;;
76115;SDS011;64847;45.778;12.802;2023-04-24T14:40:28;1.27;;;1.20;;
76115;SDS011;64847;45.778;12.802;2023-04-24T14:42:54;1.27;;;1.27;;
76115;SDS011;64847;45.778;12.802;2023-04-24T14:45:19;1.20;;;1.20;;
76115;SDS011;64847;45.778;12.802;2023-04-24T14:47:45;1.00;;;1.00;;